Tesuque Pueblo, New Mexico
Current Conditions -  °F | °C
As of 1:53 AM on Wednesday 22 Oct 2014 (Local Time) from KSAF Reporting Station
Overcast Overcast  
Wind Chill: 51°   Ceiling: 10000
Heat Index: 51°   Visibility: 10mi
Dew Point: 48°   Wind: 7mph
Humidity: 89%   Direction: 140°SE
Pressure: 30.15"   Gusts: NA
Location:  35.7017°N, 105.921°W
Report Text: KSAF 220753Z AUTO 14006KT 10SM OVC100 11/09 A3015 RMK AO2 SLP141 T01060089
Loading
Personal Weather Stations






























Interactive Weather Map
Tropical Storm Tracking
New forecast layout! Learn more

10-Day Weather Forecast

Advertisements
Track Severe Weather on mobile